MX-SPORT.RU - информационный портал о российском мотокроссе. Последние новости с международных и национальных чемпионатов, описание и фото технических новинок, календарь и результаты соревнований по мотокроссу, Интернет-магазин шин и запчастей для кроссовых мотоциклов.
Ваша корзина

в корзине товаров0
на сумму0.00
Выберите раздел
Результаты соревнований по мотокроссу

Сборная США - победитель Мотокросса Наций 2010

Опубликовано: 27.09.2010

В американском Денвере сборная США в 21-й раз выиграла главный тилул в мотокроссе - Мотокросс Наций. Второе место заняла команда Бельгии, на третью ступень подиума поднялись немцы, опередившие на одно очко команду Великобритании. Сбоная Италии финишировала пятой. Неудачниками гонки стали французы, из-за двух сходов Марвина Мюскена оказавшиеся только на 7-м месте после команды Австралии. Новая Зеландия, Португалия и Пуэрто-Рико замкнули десятку сильнейших команд.

Сборная США - победитель Мотокросса Наций 2010

В первой гонке МХ1+МХ2 старт выиграл Джонатан Барраган, но после первого круга в лидеры вышел Райан Данжи. Итальянец Антонио Кайроли преследовал его по пятам примерно ползаезда, но к концу гонки был вынужден сбросить темп и довольствоваться вторым местом. Австралиец Бретт Меткалф финишировал третьим, впереди Баррагана, и француза Готье Паулина. Лучшим из гонщиков класса МХ2 стал немец Кен Рокзен, он занял 6-е место, впереди Стива Рамона (Бельгия, МХ1) и Дэна Уилсона (Великобритания, МХ2). Американец Трей Канар, выступавший в МХ2, стартовал 30-м, но смог прорваться на 12-е место, незадолго до финиша опередив бельгийца Джереми ван Хоребека.

Антонио Кайроли

Результаты 1-го заезда, МХ1+МХ2:
Pos Nr Rider Nat. Fed. Bike Time laps Diff. First Diff. Prev. Bestlaptime in lap Speed
1 1 Dungey, Ryan USA AMA Suzuki 35:56.436 15 0:00.000 0:00.000 2:13.074 7 47.072
2 16 Cairoli, Antonio ITA FMI KTM 36:02.034 15 0:05.598 0:05.598 2:13.552 3 46.903
3 19 Metcalfe, Brett AUS MA Honda 36:18.436 15 0:22.000 0:16.402 2:14.358 3 46.622
4 34 Barragan, Jonathan ESP RFME Kawasaki 36:22.140 15 0:25.704 0:03.704 2:14.644 6 46.523
5 4 Paulin, Gautier FRA MCM Yamaha 36:29.353 15 0:32.917 0:07.213 2:16.005 2 46.057
6 11 Roczen, Ken GER DMSB Suzuki 36:35.797 15 0:39.361 0:06.444 2:14.276 8 46.65
7 7 Ramon, Steve BEL FMB Suzuki 36:39.637 15 0:43.201 0:03.840 2:16.387 8 45.928
8 14 Wilson, Dean GBR ACU Kawasaki 36:43.765 15 0:47.329 0:04.128 2:16.827 2 45.78
9 37 Goncalves, Rui POR FMP KTM 37:11.504 15 1:15.068 0:27.739 2:17.476 3 45.564
10 22 Leok, Tanel EST EMF Honda 37:18.654 15 1:22.218 0:07.150 2:18.277 6 45.3
11 31 Coppins, Joshua NZL MNZ Aprilia 37:20.492 15 1:24.056 0:01.838 2:19.333 10 44.957
12 2 Canard, Trey USA AMA Honda 37:21.349 15 1:24.913 0:00.857 2:17.853 8 45.44
13 8 van Horebeek, Jeremy BEL FMB Kawasaki 37:37.678 15 1:41.242 0:16.329 2:18.966 9 45.076
14 10 Schiffer, Marcus GER DMSB Suzuki 37:40.218 15 1:43.782 0:02.540 2:19.256 7 44.982
15 77 Osborne, Zach PUR FMPR Yamaha 38:01.386 15 2:04.950 0:21.168 2:21.142 8 44.381
16 50 Karro, Matiss LAT LAMSF Suzuki 38:04.210 15 2:07.774 0:02.824 2:21.510 8 44.265
17 67 Walkner, Matthias AUT OeAMTC KTM 38:12.176 15 2:15.740 0:07.966 2:21.727 7 44.198
18 20 Ferris, Dean AUS MA Honda 38:12.282 15 2:15.846 0:00.106 2:21.548 8 44.254
19 53 Kullas, Harri FIN SML Yamaha 36:04.534 14 1 lap 1 lap 2:23.403 6 43.681
20 17 Lupino, Alessandro ITA FMI Yamaha 36:05.050 14 1 lap 0:00.516 2:22.480 5 43.964

Краткое видео первого заезда:


Второй заезд МХ2+OPEN снова начался с лидерства команды США, Эндрю Шорт выиграл старт, но на втором круге упал и откатился в третью десятку. Этим воспользовался Кен Рокзен, он смог обойти Бена Таунли (Новая Зеландия) и Кайла Ригала (Пуэрто-Рико) и вышел в лидеры гонки. Однако, Таунли не собирался сдаваться и отобрал первое место у молодого немца. Позже его смог пройти и Ригал, в итоге Рокзен финишировал третьим. После него гонку закончили бельгиец Десалле, немец Нагль, Дэн Уилсон, Трей Канар. Эндрю Шорт смог частично наверстать упущенное, финишировав 13-м. Другой неудачник - француз Ксавьер Буг - после 26-го места на старте закончил гонку 11-м.

Трей Канар

Результаты 2-го заезда, МХ2+OPEN:
Pos Nr Rider Nat. Fed. Bike Time laps Diff. First Diff. Prev. Bestlaptime in lap Speed
1 33 Townley, Ben NZL MNZ Honda 36:11.627 15 0:00.000 0:00.000 2:13.540 4 46.907
2 78 Regal, Kyle PUR FMPR Honda 36:17.873 15 0:06.246 0:06.246 2:15.716 8 46.155
3 11 Roczen, Ken GER DMSB Suzuki 36:18.862 15 0:07.235 0:00.989 2:14.318 4 46.636
4 9 Desalle, Clement BEL FMB Suzuki 36:41.798 15 0:30.171 0:22.936 2:15.604 8 46.193
5 12 Nagl, Maximilian GER DMSB KTM 36:49.436 15 0:37.809 0:07.638 2:16.302 6 45.957
6 14 Wilson, Dean GBR ACU Kawasaki 36:53.378 15 0:41.751 0:03.942 2:17.094 5 45.691
7 2 Canard, Trey USA AMA Honda 37:07.925 15 0:56.298 0:14.547 2:17.537 7 45.544
8 15 Anderson, Brad GBR ACU Honda 37:09.697 15 0:58.070 0:01.772 2:18.745 2 45.148
9 18 Monni, Manuel ITA FMI Yamaha 37:31.943 15 1:20.316 0:22.246 2:18.129 5 45.349
10 8 van Horebeek, Jeremy BEL FMB Kawasaki 37:36.637 15 1:25.010 0:04.694 2:18.138 5 45.346
11 6 Boog, Xavier FRA FFM Kawasaki 37:41.653 15 1:30.026 0:05.016 2:17.989 5 45.395
12 42 Balbi, Antonio BRA CBM Kawasaki 37:50.251 15 1:38.624 0:08.598 2:20.104 8 44.71
13 3 Short, Andrew USA AMA Honda 37:52.756 15 1:41.129 0:02.505 2:17.673 2 45.499
14 77 Osborne, Zach PUR FMPR Yamaha 37:55.511 15 1:43.884 0:02.755 2:21.043 11 44.412
15 132 Atsuta, Yoshitaka JPN MFJ Suzuki 38:00.856 15 1:49.229 0:05.345 2:21.142 8 44.381
16 30 Tonus, Arnaud SUI FMS Suzuki 38:01.932 15 1:50.305 0:01.076 2:20.808 14 44.486
17 81 Keast, Kyle CAN CMA Honda 38:40.504 15 2:28.877 0:38.572 2:22.411 9 43.985
18 21 Marmont, Jay AUS MA Yamaha 36:03.317 14 1 lap 1 lap 2:18.071 5 45.368
19 53 Kullas, Harri FIN SML Yamaha 36:12.435 14 1 lap 0:09.118 2:22.533 9 43.948
20 50 Karro, Matiss LAT LAMSF Suzuki 36:15.033 14 1 lap 0:02.598 2:20.719 6 44.514


Краткое видео второго заезда:


После двух гонок лучшая сумма очков была у сборной Германии, и казалось, что они смогут поспорить с хозяевами трассы за победу. Но падение и сход Макса Нагля в последнем заезде МХ1+OPEN сильно усложнил их положение, так как 16-е место Маркуса Шифера было недостаточным для борьбы за высокие места. Старт третьего заезда снова выиграл лучший стартер АМА Эндрю Шорт, РАйан Данжи расположился сразу за ним. В первой половине гонки Данжи вышел в лидеры и таким тандемом сборная США и приехала к победному финишу. Победитель второй гонки Бен Таунли упал и закончил гонку досрочно, а позади американцеы финишировали бельгиец Десалле и Антонио Кайроли.

Эндрю Шорт

Результаты 3-го заезда, МХ1+OPEN:
Pos Nr Rider Nat. Fed. Bike Time laps Diff. First Diff. Prev. Bestlaptime in lap Speed
1 1 Dungey, Ryan USA AMA Suzuki 36:41.709 15 0:00.000 0:00.000 2:15.644 5 46.18
2 3 Short, Andrew USA AMA Honda 36:51.939 15 0:10.230 0:10.230 2:16.273 2 45.967
3 9 Desalle, Clement BEL FMB Suzuki 36:59.286 15 0:17.577 0:07.347 2:17.143 7 45.675
4 16 Cairoli, Antonio ITA FMI KTM 37:04.302 15 0:22.593 0:05.016 2:16.272 4 45.967
5 19 Metcalfe, Brett AUS MA Honda 37:08.896 15 0:27.187 0:04.594 2:17.124 3 45.681
6 7 Ramon, Steve BEL FMB Suzuki 37:11.487 15 0:29.778 0:02.591 2:17.963 3 45.403
7 6 Boog, Xavier FRA FFM Kawasaki 37:13.655 15 0:31.946 0:02.168 2:17.982 2 45.397
8 30 Tonus, Arnaud SUI FMS Suzuki 37:14.844 15 0:33.135 0:01.189 2:18.463 5 45.24
9 4 Paulin, Gautier FRA MCM Yamaha 37:40.239 15 0:58.530 0:25.395 2:18.756 5 45.144
10 21 Marmont, Jay AUS MA Yamaha 37:47.203 15 1:05.494 0:06.964 2:20.079 3 44.718
11 15 Anderson, Brad GBR ACU Honda 37:49.953 15 1:08.244 0:02.750 2:20.038 4 44.731
12 13 Nicholls, Jake GBR ACU KTM 38:00.564 15 1:18.855 0:10.611 2:21.217 3 44.357
13 37 Goncalves, Rui POR FMP KTM 38:14.842 15 1:33.133 0:14.278 2:20.660 4 44.533
14 31 Coppins, Joshua NZL MNZ Aprilia 38:17.970 15 1:36.261 0:03.128 2:21.168 4 44.373
15 18 Monni, Manuel ITA FMI Yamaha 38:19.101 15 1:37.392 0:01.131 2:21.756 6 44.189
16 10 Schiffer, Marcus GER DMSB Suzuki 38:19.830 15 1:38.121 0:00.729 2:22.473 5 43.966
17 42 Balbi, Antonio BRA CBM Kawasaki 38:31.568 15 1:49.859 0:11.738 2:20.837 5 44.477
18 67 Walkner, Matthias AUT OeAMTC KTM 38:33.532 15 1:51.823 0:01.964 2:22.581 6 43.933
19 132 Atsuta, Yoshitaka JPN MFJ Suzuki 38:48.741 15 2:07.032 0:15.209 2:23.418 7 43.677
20 22 Leok, Tanel EST EMF Honda 38:58.509 15 2:16.800 0:09.768 2:21.449 3 44.285


Краткое видео третьего заезда:


Итоговые результаты командного зачета Мотокросса Наций 2010:
Pos Country Points Race Nr Name Fed. Bike Class


1 USA 23
1 Race 3 1 DUNGEY, Ryan AMA Suzuki MX1
1 Race 1 1 DUNGEY, Ryan AMA Suzuki MX1
2 Race 3 3 SHORT, Andrew AMA Honda Open
7 Race 2 2 CANARD, Trey AMA Honda MX2
12 Race 1 2 CANARD, Trey AMA Honda MX2
13 Race 2 3 SHORT, Andrew AMA Honda Open


2 Belgium 30
3 Race 3 9 DESALLE, Clement FMB Suzuki Open
4 Race 2 9 DESALLE, Clement FMB Suzuki Open
6 Race 3 7 RAMON, Steve FMB Suzuki MX1
7 Race 1 7 RAMON, Steve FMB Suzuki MX1
10 Race 2 8 VAN HOREBEEK, Jeremy FMB Kawasaki MX2
13 Race 1 8 VAN HOREBEEK, Jeremy FMB Kawasaki MX2


3 Germany 44
3 Race 2 11 ROCZEN, Ken DMSB Suzuki MX2
5 Race 2 12 NAGL, Maximilian DMSB KTM Open
6 Race 1 11 ROCZEN, Ken DMSB Suzuki MX2
14 Race 1 10 SCHIFFER, Marcus DMSB Suzuki MX1
16 Race 3 10 SCHIFFER, Marcus DMSB Suzuki MX1
39 Race 3 12 NAGL, Maximilian DMSB KTM Open


4 Great Britain 45
6 Race 2 14 WILSON, Dean ACU Kawasaki MX2
8 Race 2 15 ANDERSON, Brad ACU Honda Open
8 Race 1 14 WILSON, Dean ACU Kawasaki MX2
11 Race 3 15 ANDERSON, Brad ACU Honda Open
12 Race 3 13 NICHOLLS, Jake ACU KTM MX1
37 Race 1 13 NICHOLLS, Jake ACU KTM MX1


5 Italy 50
2 Race 1 16 CAIROLI, Antonio FMI KTM MX1
4 Race 3 16 CAIROLI, Antonio FMI KTM MX1
9 Race 2 18 MONNI, Manuel FMI Yamaha Open
15 Race 3 18 MONNI, Manuel FMI Yamaha Open
20 Race 1 17 LUPINO, Alessandro FMI Yamaha MX2
25 Race 2 17 LUPINO, Alessandro FMI Yamaha MX2


6 Australia 54
3 Race 1 19 METCALFE, Brett MA Honda MX1
5 Race 3 19 METCALFE, Brett MA Honda MX1
10 Race 3 21 MARMONT, Jay MA Yamaha Open
18 Race 2 21 MARMONT, Jay MA Yamaha Open
18 Race 1 20 FERRIS, Dean MA Honda MX2
27 Race 2 20 FERRIS, Dean MA Honda MX2


7 France 71
5 Race 1 4 PAULIN, Gautier MCM Yamaha MX1
7 Race 3 6 BOOG, Xavier FFM Kawasaki Open
9 Race 3 4 PAULIN, Gautier MCM Yamaha MX1
11 Race 2 6 BOOG, Xavier FFM Kawasaki Open
39 Race 1 5 MUSQUIN, Marvin FFM KTM MX2
40 Race 2 5 MUSQUIN, Marvin FFM KTM MX2


8 New Zealand 90
1 Race 2 33 TOWNLEY, Ben MNZ Honda Open
11 Race 1 31 COPPINS, Joshua MNZ Aprilia MX1
14 Race 3 31 COPPINS, Joshua MNZ Aprilia MX1
29 Race 1 32 GROOMBRIDGE, Brad MNZ Honda MX2
35 Race 3 33 TOWNLEY, Ben MNZ Honda Open
36 Race 2 32 GROOMBRIDGE, Brad MNZ Honda MX2


9 Portugal 94
9 Race 1 37 GONCALVES, Rui FMP KTM MX1
13 Race 3 37 GONCALVES, Rui FMP KTM MX1
21 Race 3 39 CORREIA, Luis FMP Yamaha Open
22 Race 2 39 CORREIA, Luis FMP Yamaha Open
29 Race 2 38 BASAULA, Hugo FMP Suzuki MX2
31 Race 1 38 BASAULA, Hugo FMP Suzuki MX2


10 Puerto Rico 99
2 Race 2 78 REGAL, Kyle FMPR Honda Open
14 Race 2 77 OSBORNE, Zach FMPR Yamaha MX2
15 Race 1 77 OSBORNE, Zach FMPR Yamaha MX2
32 Race 3 76 RUIZ, Christian FMPR Honda MX1
36 Race 3 78 REGAL, Kyle FMPR Honda Open
36 Race 1 76 RUIZ, Christian FMPR Honda MX1


11 Switzerland 102
8 Race 3 30 TONUS, Arnaud FMS Suzuki Open
16 Race 2 30 TONUS, Arnaud FMS Suzuki Open
22 Race 3 28 WICHT, Gregory FMS Honda MX1
28 Race 2 29 GUILLOD, Valentin FMS KTM MX2
28 Race 1 29 GUILLOD, Valentin FMS KTM MX2
40 Race 1 28 WICHT, Gregory FMS Honda MX1


12 Austria 109
17 Race 1 67 WALKNER, Matthias OeAMTC KTM MX1
18 Race 3 67 WALKNER, Matthias OeAMTC KTM MX1
24 Race 2 68 RAUCHENECKER, Pascal OeAMTC KTM MX2
24 Race 1 68 RAUCHENECKER, Pascal OeAMTC KTM MX2
26 Race 3 69 SCHMIDINGER, Günter OeAMTC Suzuki Open
38 Race 2 69 SCHMIDINGER, Günter OeAMTC Suzuki Open


13 Spain 115
4 Race 1 34 BARRAGAN, Jonathan RFME Kawasaki MX1
21 Race 2 36 LOZANO, Alvaro RFME Yamaha Open
22 Race 1 35 BUTRON, Jose Antonio RFME Suzuki MX2
31 Race 3 36 LOZANO, Alvaro RFME Yamaha Open
37 Race 3 34 BARRAGAN, Jonathan RFME Kawasaki MX1
39 Race 2 35 BUTRON, Jose Antonio RFME Suzuki MX2


14 Finland 116
19 Race 2 53 KULLAS, Harri SML Yamaha MX2
19 Race 1 53 KULLAS, Harri SML Yamaha MX2
25 Race 3 52 ERIKSSON, Toni SML KTM MX1
26 Race 1 52 ERIKSSON, Toni SML KTM MX1
27 Race 3 54 SÖDERBERG, Jon SML KTM Open
31 Race 2 54 SÖDERBERG, Jon SML KTM Open


15 Estonia 118
10 Race 1 22 LEOK, Tanel EMF Honda MX1
20 Race 3 22 LEOK, Tanel EMF Honda MX1
26 Race 2 24 KRESTINOV, Gert EMF Kawasaki Open
27 Race 1 23 RÄTSEP, Priit EMF Honda MX2
35 Race 2 23 RÄTSEP, Priit EMF Honda MX2
38 Race 3 24 KRESTINOV, Gert EMF Kawasaki Open


16 Canada 119
17 Race 2 81 KEAST, Kyle CMA Honda Open
21 Race 1 79 MEDAGLIA, Jeremy CMA KTM MX1
23 Race 3 81 KEAST, Kyle CMA Honda Open
25 Race 1 80 BENOIT, Kaven CMA KTM MX2
33 Race 2 80 BENOIT, Kaven CMA KTM MX2


17 Latvia 121
16 Race 1 50 KARRO, Matiss LAMSF Suzuki MX2
20 Race 2 50 KARRO, Matiss LAMSF Suzuki MX2
23 Race 1 49 STEINBERGS, Ivo LAMSF Honda MX1
29 Race 3 49 STEINBERGS, Ivo LAMSF Honda MX1
33 Race 3 51 FREIBERGS, Lauris LAMSF Honda Open
37 Race 2 51 FREIBERGS, Lauris LAMSF Honda Open


18 Brazil 123
12 Race 2 42 BALBI, Antonio CBM Kawasaki Open
17 Race 3 42 BALBI, Antonio CBM Kawasaki Open
28 Race 3 40 CIDADE, Anderson CBM Kawasaki MX1
32 Race 2 41 CASTRO, Cristopher CBM Kawasaki MX2
34 Race 1 41 CASTRO, Cristopher CBM Kawasaki MX2
35 Race 1 40 CIDADE, Anderson CBM Kawasaki MX1


19 Japan 128
15 Race 2 132 ATSUTA, Yoshitaka MFJ Suzuki Open
19 Race 3 132 ATSUTA, Yoshitaka MFJ Suzuki Open
30 Race 2 131 MIHARA, Takuya MFJ Kawasaki MX2
30 Race 1 131 MIHARA, Takuya MFJ Kawasaki MX2
34 Race 3 130 NARITA, Akira MFJ Yamaha MX1
38 Race 1 130 NARITA, Akira MFJ Yamaha MX1


20 Ireland 142
23 Race 2 48 CROCKARD, Gordon MCUI Kawasaki Open
24 Race 3 48 CROCKARD, Gordon MCUI Kawasaki Open
30 Race 3 46 EDMONDS, Stuart MCUI TM MX1
32 Race 1 47 BARR, Martin MCUI Honda MX2
33 Race 1 46 EDMONDS, Stuart MCUI TM MX1
34 Race 2 47 BARR, Martin MCUI Honda MX2

Сборная Украины заняла 6-е место в Финале-В и 25-е в общем зачете, сборная России участия не принимала.

Кен Рокзен стал обладателем приза от Рики Кармайкла как самый молодой участник Мотокросса Наций 2010.

Следующий, 65-й Мотокросс Наций состоится на трассе Сен-Жан-Д'Анжели во Франции.


Обсудить эту статью на Форуме!




« Вернуться
 
© Все права защищены. MX-SPORT.RU 2009 - 2017г.
Использование материалов без согласия правообладателей запрещено.
Производство и хостинг сайта Подольск.RU

Rambler's Top100 Рейтинг@Mail.ru